sensor_id;sensor_type;location;lat;lon;timestamp;P1;durP1;ratioP1;P2;durP2;ratioP2
40815;SDS011;26535;48.788;9.214;2022-12-05T06:03:43;20.40;;;10.20;;
40815;SDS011;26535;48.788;9.214;2022-12-05T06:06:10;21.95;;;11.38;;
40815;SDS011;26535;48.788;9.214;2022-12-05T06:08:38;26.23;;;11.57;;
40815;SDS011;26535;48.788;9.214;2022-12-05T06:11:09;26.15;;;12.07;;
40815;SDS011;26535;48.788;9.214;2022-12-05T06:13:36;27.25;;;11.98;;
40815;SDS011;26535;48.788;9.214;2022-12-05T06:16:03;23.77;;;10.88;;
40815;SDS011;26535;48.788;9.214;2022-12-05T06:18:30;21.75;;;10.20;;
40815;SDS011;26535;48.788;9.214;2022-12-05T06:20:56;22.27;;;10.55;;
40815;SDS011;26535;48.788;9.214;2022-12-05T06:23:26;21.90;;;10.02;;
40815;SDS011;26535;48.788;9.214;2022-12-05T06:25:52;20.80;;;10.90;;
40815;SDS011;26535;48.788;9.214;2022-12-05T06:28:20;22.65;;;10.32;;
40815;SDS011;26535;48.788;9.214;2022-12-05T06:30:48;20.45;;;10.40;;
40815;SDS011;26535;48.788;9.214;2022-12-05T06:33:13;24.48;;;10.95;;
40815;SDS011;26535;48.788;9.214;2022-12-05T06:35:40;23.73;;;11.68;;
40815;SDS011;26535;48.788;9.214;2022-12-05T06:38:06;23.70;;;11.68;;
40815;SDS011;26535;48.788;9.214;2022-12-05T06:40:32;21.30;;;10.52;;
40815;SDS011;26535;48.788;9.214;2022-12-05T06:42:58;22.95;;;11.40;;
40815;SDS011;26535;48.788;9.214;2022-12-05T06:45:24;22.17;;;10.50;;
40815;SDS011;26535;48.788;9.214;2022-12-05T06:47:50;24.33;;;10.98;;
40815;SDS011;26535;48.788;9.214;2022-12-05T06:50:17;20.35;;;10.25;;
40815;SDS011;26535;48.788;9.214;2022-12-05T06:52:43;20.58;;;9.82;;
40815;SDS011;26535;48.788;9.214;2022-12-05T06:55:09;19.92;;;9.50;;
40815;SDS011;26535;48.788;9.214;2022-12-05T06:57:35;21.17;;;9.82;;
40815;SDS011;26535;48.788;9.214;2022-12-05T07:00:01;15.93;;;9.07;;
40815;SDS011;26535;48.788;9.214;2022-12-05T07:03:04;21.02;;;10.00;;
40815;SDS011;26535;48.788;9.214;2022-12-05T07:05:31;22.77;;;9.57;;
40815;SDS011;26535;48.788;9.214;2022-12-05T07:07:57;20.13;;;9.32;;
40815;SDS011;26535;48.788;9.214;2022-12-05T07:10:23;18.65;;;9.57;;
40815;SDS011;26535;48.788;9.214;2022-12-05T07:12:48;18.45;;;9.45;;
40815;SDS011;26535;48.788;9.214;2022-12-05T07:15:14;19.48;;;9.98;;
40815;SDS011;26535;48.788;9.214;2022-12-05T07:17:40;18.20;;;9.45;;
40815;SDS011;26535;48.788;9.214;2022-12-05T07:20:06;19.95;;;10.05;;
40815;SDS011;26535;48.788;9.214;2022-12-05T07:25:00;23.42;;;10.38;;
40815;SDS011;26535;48.788;9.214;2022-12-05T07:27:26;20.35;;;9.77;;
40815;SDS011;26535;48.788;9.214;2022-12-05T07:29:52;19.63;;;10.68;;
40815;SDS011;26535;48.788;9.214;2022-12-05T07:32:18;20.30;;;10.45;;
40815;SDS011;26535;48.788;9.214;2022-12-05T07:34:44;20.45;;;10.43;;
40815;SDS011;26535;48.788;9.214;2022-12-05T07:37:09;18.63;;;10.05;;
40815;SDS011;26535;48.788;9.214;2022-12-05T07:39:37;18.52;;;9.68;;
40815;SDS011;26535;48.788;9.214;2022-12-05T07:42:03;21.05;;;10.73;;
40815;SDS011;26535;48.788;9.214;2022-12-05T07:44:29;23.30;;;10.70;;
40815;SDS011;26535;48.788;9.214;2022-12-05T07:46:56;21.48;;;9.95;;
40815;SDS011;26535;48.788;9.214;2022-12-05T07:49:22;20.55;;;9.65;;
40815;SDS011;26535;48.788;9.214;2022-12-05T07:51:47;21.27;;;9.73;;
40815;SDS011;26535;48.788;9.214;2022-12-05T07:54:13;21.85;;;9.65;;
40815;SDS011;26535;48.788;9.214;2022-12-05T07:56:40;22.00;;;10.15;;
40815;SDS011;26535;48.788;9.214;2022-12-05T07:59:06;20.02;;;9.57;;
40815;SDS011;26535;48.788;9.214;2022-12-05T08:01:32;22.30;;;11.00;;
40815;SDS011;26535;48.788;9.214;2022-12-05T08:03:58;22.52;;;10.05;;
40815;SDS011;26535;48.788;9.214;2022-12-05T08:06:25;24.23;;;12.70;;
40815;SDS011;26535;48.788;9.214;2022-12-05T08:08:53;28.33;;;14.60;;
40815;SDS011;26535;48.788;9.214;2022-12-05T08:11:20;22.98;;;11.85;;
40815;SDS011;26535;48.788;9.214;2022-12-05T08:13:48;19.00;;;9.93;;
40815;SDS011;26535;48.788;9.214;2022-12-05T08:16:15;19.13;;;9.85;;
40815;SDS011;26535;48.788;9.214;2022-12-05T08:18:44;21.92;;;10.52;;
40815;SDS011;26535;48.788;9.214;2022-12-05T08:21:11;19.05;;;9.88;;
40815;SDS011;26535;48.788;9.214;2022-12-05T08:26:06;26.17;;;13.90;;
40815;SDS011;26535;48.788;9.214;2022-12-05T08:28:34;30.30;;;17.50;;
40815;SDS011;26535;48.788;9.214;2022-12-05T08:31:07;20.45;;;10.80;;
40815;SDS011;26535;48.788;9.214;2022-12-05T08:33:38;19.63;;;9.73;;
40815;SDS011;26535;48.788;9.214;2022-12-05T08:36:06;17.92;;;9.75;;
40815;SDS011;26535;48.788;9.214;2022-12-05T08:38:34;17.30;;;8.10;;
40815;SDS011;26535;48.788;9.214;2022-12-05T08:41:01;16.27;;;8.45;;
40815;SDS011;26535;48.788;9.214;2022-12-05T08:43:28;15.50;;;8.30;;
40815;SDS011;26535;48.788;9.214;2022-12-05T08:45:55;16.52;;;8.30;;
40815;SDS011;26535;48.788;9.214;2022-12-05T08:48:21;18.65;;;9.05;;
40815;SDS011;26535;48.788;9.214;2022-12-05T08:50:48;16.38;;;8.73;;
40815;SDS011;26535;48.788;9.214;2022-12-05T08:53:15;18.45;;;9.75;;
40815;SDS011;26535;48.788;9.214;2022-12-05T08:55:41;15.57;;;8.68;;
40815;SDS011;26535;48.788;9.214;2022-12-05T08:58:07;19.08;;;10.00;;
40815;SDS011;26535;48.788;9.214;2022-12-05T09:00:33;17.98;;;9.55;;
40815;SDS011;26535;48.788;9.214;2022-12-05T09:02:59;25.17;;;11.88;;
40815;SDS011;26535;48.788;9.214;2022-12-05T09:05:25;22.58;;;11.63;;
40815;SDS011;26535;48.788;9.214;2022-12-05T09:07:51;18.55;;;9.27;;
40815;SDS011;26535;48.788;9.214;2022-12-05T09:10:17;17.90;;;9.43;;
40815;SDS011;26535;48.788;9.214;2022-12-05T09:12:43;17.05;;;9.25;;
40815;SDS011;26535;48.788;9.214;2022-12-05T09:15:09;17.55;;;9.48;;
40815;SDS011;26535;48.788;9.214;2022-12-05T09:17:36;15.05;;;8.63;;
40815;SDS011;26535;48.788;9.214;2022-12-05T09:20:02;17.50;;;8.93;;
40815;SDS011;26535;48.788;9.214;2022-12-05T09:22:29;17.65;;;8.48;;
40815;SDS011;26535;48.788;9.214;2022-12-05T09:24:55;17.67;;;9.00;;
40815;SDS011;26535;48.788;9.214;2022-12-05T09:27:21;14.95;;;8.43;;
40815;SDS011;26535;48.788;9.214;2022-12-05T09:29:46;16.15;;;8.50;;
40815;SDS011;26535;48.788;9.214;2022-12-05T09:32:12;14.52;;;8.13;;
40815;SDS011;26535;48.788;9.214;2022-12-05T09:34:38;16.80;;;8.82;;
40815;SDS011;26535;48.788;9.214;2022-12-05T09:37:04;14.50;;;8.75;;
40815;SDS011;26535;48.788;9.214;2022-12-05T09:39:31;15.52;;;8.60;;
40815;SDS011;26535;48.788;9.214;2022-12-05T09:52:36;16.73;;;8.50;;
40815;SDS011;26535;48.788;9.214;2022-12-05T09:55:10;16.35;;;8.65;;
40815;SDS011;26535;48.788;9.214;2022-12-05T09:57:51;15.38;;;7.72;;
40815;SDS011;26535;48.788;9.214;2022-12-05T10:00:21;12.38;;;7.10;;
40815;SDS011;26535;48.788;9.214;2022-12-05T10:05:30;15.27;;;7.45;;
40815;SDS011;26535;48.788;9.214;2022-12-05T10:08:16;44.47;;;26.38;;
40815;SDS011;26535;48.788;9.214;2022-12-05T10:10:58;20.85;;;11.65;;
40815;SDS011;26535;48.788;9.214;2022-12-05T10:16:27;15.00;;;8.40;;
40815;SDS011;26535;48.788;9.214;2022-12-05T10:19:09;15.35;;;8.27;;
40815;SDS011;26535;48.788;9.214;2022-12-05T10:21:41;15.55;;;7.18;;
40815;SDS011;26535;48.788;9.214;2022-12-05T10:24:29;20.40;;;11.95;;
40815;SDS011;26535;48.788;9.214;2022-12-05T10:27:07;16.83;;;8.48;;
40815;SDS011;26535;48.788;9.214;2022-12-05T10:29:43;18.58;;;8.55;;
40815;SDS011;26535;48.788;9.214;2022-12-05T10:32:27;17.35;;;8.30;;
40815;SDS011;26535;48.788;9.214;2022-12-05T10:34:59;15.70;;;8.00;;
40815;SDS011;26535;48.788;9.214;2022-12-05T10:37:38;15.02;;;8.00;;
40815;SDS011;26535;48.788;9.214;2022-12-05T10:40:04;13.13;;;7.13;;
40815;SDS011;26535;48.788;9.214;2022-12-05T10:42:31;14.75;;;7.55;;
40815;SDS011;26535;48.788;9.214;2022-12-05T10:45:03;11.98;;;6.90;;
40815;SDS011;26535;48.788;9.214;2022-12-05T10:47:31;13.05;;;7.00;;
40815;SDS011;26535;48.788;9.214;2022-12-05T10:50:06;27.85;;;17.48;;
40815;SDS011;26535;48.788;9.214;2022-12-05T10:52:54;13.23;;;8.57;;
40815;SDS011;26535;48.788;9.214;2022-12-05T10:55:33;11.38;;;6.85;;
40815;SDS011;26535;48.788;9.214;2022-12-05T11:00:57;11.02;;;6.18;;
40815;SDS011;26535;48.788;9.214;2022-12-05T11:03:38;11.05;;;6.30;;
40815;SDS011;26535;48.788;9.214;2022-12-05T11:06:21;11.27;;;6.30;;
40815;SDS011;26535;48.788;9.214;2022-12-05T11:08:50;16.35;;;9.80;;
40815;SDS011;26535;48.788;9.214;2022-12-05T11:11:19;14.00;;;8.30;;
40815;SDS011;26535;48.788;9.214;2022-12-05T11:16:31;12.73;;;7.45;;
40815;SDS011;26535;48.788;9.214;2022-12-05T11:21:49;12.25;;;6.78;;
40815;SDS011;26535;48.788;9.214;2022-12-05T11:24:26;14.30;;;6.82;;
40815;SDS011;26535;48.788;9.214;2022-12-05T11:27:00;12.57;;;6.75;;
40815;SDS011;26535;48.788;9.214;2022-12-05T11:30:02;14.02;;;7.50;;
40815;SDS011;26535;48.788;9.214;2022-12-05T11:32:39;12.75;;;7.30;;
40815;SDS011;26535;48.788;9.214;2022-12-05T11:40:16;11.55;;;7.10;;
40815;SDS011;26535;48.788;9.214;2022-12-05T11:45:48;12.27;;;6.75;;
40815;SDS011;26535;48.788;9.214;2022-12-05T11:53:59;12.75;;;7.38;;
40815;SDS011;26535;48.788;9.214;2022-12-05T11:56:34;11.20;;;6.88;;
40815;SDS011;26535;48.788;9.214;2022-12-05T12:04:48;15.15;;;7.65;;
40815;SDS011;26535;48.788;9.214;2022-12-05T12:07:23;13.52;;;7.90;;
40815;SDS011;26535;48.788;9.214;2022-12-05T12:13:05;13.50;;;7.25;;
40815;SDS011;26535;48.788;9.214;2022-12-05T12:15:42;15.27;;;7.97;;
40815;SDS011;26535;48.788;9.214;2022-12-05T12:18:36;18.73;;;12.00;;
40815;SDS011;26535;48.788;9.214;2022-12-05T12:21:25;15.25;;;8.45;;
40815;SDS011;26535;48.788;9.214;2022-12-05T12:27:11;13.23;;;7.75;;
40815;SDS011;26535;48.788;9.214;2022-12-05T12:32:53;16.25;;;7.65;;
40815;SDS011;26535;48.788;9.214;2022-12-05T12:36:11;12.65;;;7.68;;
40815;SDS011;26535;48.788;9.214;2022-12-05T12:46:48;15.57;;;8.55;;
40815;SDS011;26535;48.788;9.214;2022-12-05T12:49:34;13.40;;;8.20;;
40815;SDS011;26535;48.788;9.214;2022-12-05T12:52:10;13.48;;;7.28;;
40815;SDS011;26535;48.788;9.214;2022-12-05T12:54:48;13.15;;;7.25;;
40815;SDS011;26535;48.788;9.214;2022-12-05T12:57:25;13.93;;;7.72;;
40815;SDS011;26535;48.788;9.214;2022-12-05T13:02:36;15.55;;;7.78;;
40815;SDS011;26535;48.788;9.214;2022-12-05T13:05:20;13.27;;;7.22;;
40815;SDS011;26535;48.788;9.214;2022-12-05T13:07:57;14.43;;;7.95;;
40815;SDS011;26535;48.788;9.214;2022-12-05T13:10:32;12.50;;;7.70;;
40815;SDS011;26535;48.788;9.214;2022-12-05T13:13:04;13.80;;;8.25;;
40815;SDS011;26535;48.788;9.214;2022-12-05T13:18:01;12.75;;;7.68;;
40815;SDS011;26535;48.788;9.214;2022-12-05T13:20:31;14.18;;;7.63;;
40815;SDS011;26535;48.788;9.214;2022-12-05T13:22:59;25.80;;;14.80;;
40815;SDS011;26535;48.788;9.214;2022-12-05T13:25:28;32.33;;;19.55;;
40815;SDS011;26535;48.788;9.214;2022-12-05T13:27:58;26.55;;;16.55;;
40815;SDS011;26535;48.788;9.214;2022-12-05T13:30:29;23.17;;;14.60;;
40815;SDS011;26535;48.788;9.214;2022-12-05T13:32:57;16.10;;;9.32;;
40815;SDS011;26535;48.788;9.214;2022-12-05T13:35:31;16.65;;;8.45;;
40815;SDS011;26535;48.788;9.214;2022-12-05T13:38:30;15.73;;;8.35;;
40815;SDS011;26535;48.788;9.214;2022-12-05T13:41:17;14.68;;;8.55;;
40815;SDS011;26535;48.788;9.214;2022-12-05T13:44:02;16.63;;;8.52;;
40815;SDS011;26535;48.788;9.214;2022-12-05T13:46:37;17.00;;;8.38;;
40815;SDS011;26535;48.788;9.214;2022-12-05T13:50:07;12.88;;;7.65;;
40815;SDS011;26535;48.788;9.214;2022-12-05T13:52:27;14.40;;;8.63;;
40815;SDS011;26535;48.788;9.214;2022-12-05T13:54:56;14.07;;;7.93;;
40815;SDS011;26535;48.788;9.214;2022-12-05T14:10:12;30.90;;;16.83;;
40815;SDS011;26535;48.788;9.214;2022-12-05T14:12:57;23.75;;;12.07;;
40815;SDS011;26535;48.788;9.214;2022-12-05T14:26:39;16.52;;;9.90;;
40815;SDS011;26535;48.788;9.214;2022-12-05T14:29:23;17.60;;;9.75;;
40815;SDS011;26535;48.788;9.214;2022-12-05T14:32:22;19.52;;;10.50;;
40815;SDS011;26535;48.788;9.214;2022-12-05T14:35:02;15.95;;;8.60;;
40815;SDS011;26535;48.788;9.214;2022-12-05T14:40:22;15.85;;;7.72;;
40815;SDS011;26535;48.788;9.214;2022-12-05T14:42:53;15.95;;;8.98;;
40815;SDS011;26535;48.788;9.214;2022-12-05T14:45:37;15.85;;;8.23;;
40815;SDS011;26535;48.788;9.214;2022-12-05T14:50:50;14.77;;;8.40;;
40815;SDS011;26535;48.788;9.214;2022-12-05T14:53:21;16.13;;;8.60;;
40815;SDS011;26535;48.788;9.214;2022-12-05T15:00:57;14.07;;;8.10;;
40815;SDS011;26535;48.788;9.214;2022-12-05T15:03:31;14.27;;;8.88;;
40815;SDS011;26535;48.788;9.214;2022-12-05T15:06:03;16.77;;;9.43;;
40815;SDS011;26535;48.788;9.214;2022-12-05T15:08:38;15.18;;;8.88;;
40815;SDS011;26535;48.788;9.214;2022-12-05T15:11:13;22.05;;;12.52;;
40815;SDS011;26535;48.788;9.214;2022-12-05T15:13:58;16.95;;;10.30;;
40815;SDS011;26535;48.788;9.214;2022-12-05T15:16:29;16.00;;;9.23;;
40815;SDS011;26535;48.788;9.214;2022-12-05T15:18:59;18.52;;;9.98;;
40815;SDS011;26535;48.788;9.214;2022-12-05T15:21:37;16.95;;;8.63;;
40815;SDS011;26535;48.788;9.214;2022-12-05T15:26:38;18.27;;;10.68;;
40815;SDS011;26535;48.788;9.214;2022-12-05T15:29:05;20.05;;;11.05;;
40815;SDS011;26535;48.788;9.214;2022-12-05T15:31:34;16.70;;;9.80;;
40815;SDS011;26535;48.788;9.214;2022-12-05T15:34:04;18.40;;;11.27;;
40815;SDS011;26535;48.788;9.214;2022-12-05T15:36:37;19.15;;;10.13;;
40815;SDS011;26535;48.788;9.214;2022-12-05T15:39:25;25.30;;;11.70;;
40815;SDS011;26535;48.788;9.214;2022-12-05T15:41:52;24.15;;;13.88;;
40815;SDS011;26535;48.788;9.214;2022-12-05T15:44:20;18.83;;;10.85;;
40815;SDS011;26535;48.788;9.214;2022-12-05T15:46:51;19.42;;;10.65;;
40815;SDS011;26535;48.788;9.214;2022-12-05T15:49:25;19.50;;;11.40;;
40815;SDS011;26535;48.788;9.214;2022-12-05T15:51:54;23.35;;;13.38;;
40815;SDS011;26535;48.788;9.214;2022-12-05T15:54:30;23.15;;;12.52;;
40815;SDS011;26535;48.788;9.214;2022-12-05T15:59:55;22.77;;;13.43;;
40815;SDS011;26535;48.788;9.214;2022-12-05T16:02:42;27.40;;;15.43;;
40815;SDS011;26535;48.788;9.214;2022-12-05T16:05:27;28.98;;;14.93;;
40815;SDS011;26535;48.788;9.214;2022-12-05T16:07:59;28.33;;;16.17;;
40815;SDS011;26535;48.788;9.214;2022-12-05T16:10:28;25.67;;;14.23;;
40815;SDS011;26535;48.788;9.214;2022-12-05T16:12:54;38.65;;;20.00;;
40815;SDS011;26535;48.788;9.214;2022-12-05T16:15:26;26.27;;;13.60;;
40815;SDS011;26535;48.788;9.214;2022-12-05T16:17:53;36.50;;;21.83;;
40815;SDS011;26535;48.788;9.214;2022-12-05T16:22:49;41.50;;;23.20;;
40815;SDS011;26535;48.788;9.214;2022-12-05T16:25:22;28.02;;;16.05;;
40815;SDS011;26535;48.788;9.214;2022-12-05T16:28:00;26.45;;;15.45;;
40815;SDS011;26535;48.788;9.214;2022-12-05T16:30:27;25.98;;;15.48;;
40815;SDS011;26535;48.788;9.214;2022-12-05T16:33:13;24.73;;;14.67;;
40815;SDS011;26535;48.788;9.214;2022-12-05T16:35:41;28.00;;;15.85;;
40815;SDS011;26535;48.788;9.214;2022-12-05T16:40:53;24.70;;;14.15;;
40815;SDS011;26535;48.788;9.214;2022-12-05T16:45:58;17.63;;;10.30;;
40815;SDS011;26535;48.788;9.214;2022-12-05T16:48:35;19.25;;;10.73;;
40815;SDS011;26535;48.788;9.214;2022-12-05T16:53:49;38.10;;;20.52;;
40815;SDS011;26535;48.788;9.214;2022-12-05T16:56:24;22.52;;;12.93;;
40815;SDS011;26535;48.788;9.214;2022-12-05T16:58:57;18.63;;;11.68;;
40815;SDS011;26535;48.788;9.214;2022-12-05T17:01:30;18.58;;;10.73;;
40815;SDS011;26535;48.788;9.214;2022-12-05T17:03:56;16.13;;;9.88;;
40815;SDS011;26535;48.788;9.214;2022-12-05T17:06:23;20.05;;;10.30;;
40815;SDS011;26535;48.788;9.214;2022-12-05T17:08:50;16.67;;;9.82;;
40815;SDS011;26535;48.788;9.214;2022-12-05T17:11:18;18.20;;;10.40;;
40815;SDS011;26535;48.788;9.214;2022-12-05T17:13:49;17.98;;;10.48;;
40815;SDS011;26535;48.788;9.214;2022-12-05T17:16:16;17.00;;;10.25;;
40815;SDS011;26535;48.788;9.214;2022-12-05T17:18:43;17.27;;;10.25;;
40815;SDS011;26535;48.788;9.214;2022-12-05T17:21:11;18.75;;;10.48;;
40815;SDS011;26535;48.788;9.214;2022-12-05T17:23:57;18.83;;;10.73;;
40815;SDS011;26535;48.788;9.214;2022-12-05T17:26:24;19.35;;;9.88;;
40815;SDS011;26535;48.788;9.214;2022-12-05T17:28:50;20.13;;;11.57;;
40815;SDS011;26535;48.788;9.214;2022-12-05T17:31:17;17.00;;;9.90;;
40815;SDS011;26535;48.788;9.214;2022-12-05T17:33:45;19.13;;;10.57;;
40815;SDS011;26535;48.788;9.214;2022-12-05T17:36:12;17.30;;;9.98;;
40815;SDS011;26535;48.788;9.214;2022-12-05T17:38:41;15.10;;;9.30;;
40815;SDS011;26535;48.788;9.214;2022-12-05T17:41:08;19.33;;;10.52;;
40815;SDS011;26535;48.788;9.214;2022-12-05T17:43:40;23.67;;;12.73;;
40815;SDS011;26535;48.788;9.214;2022-12-05T17:46:06;18.00;;;10.68;;
40815;SDS011;26535;48.788;9.214;2022-12-05T17:48:32;18.73;;;10.63;;
40815;SDS011;26535;48.788;9.214;2022-12-05T17:50:58;19.50;;;11.55;;
40815;SDS011;26535;48.788;9.214;2022-12-05T17:53:27;20.05;;;11.70;;
40815;SDS011;26535;48.788;9.214;2022-12-05T17:55:52;19.48;;;11.15;;
40815;SDS011;26535;48.788;9.214;2022-12-05T17:58:18;19.92;;;9.85;;
40815;SDS011;26535;48.788;9.214;2022-12-05T18:00:44;17.77;;;9.93;;
40815;SDS011;26535;48.788;9.214;2022-12-05T18:03:15;19.25;;;11.23;;
40815;SDS011;26535;48.788;9.214;2022-12-05T18:05:42;20.77;;;11.80;;
40815;SDS011;26535;48.788;9.214;2022-12-05T18:08:09;20.45;;;11.20;;
40815;SDS011;26535;48.788;9.214;2022-12-05T18:10:40;23.70;;;13.30;;
40815;SDS011;26535;48.788;9.214;2022-12-05T18:13:07;23.25;;;13.20;;
40815;SDS011;26535;48.788;9.214;2022-12-05T18:15:33;22.05;;;12.02;;
40815;SDS011;26535;48.788;9.214;2022-12-05T18:17:58;21.17;;;12.70;;
40815;SDS011;26535;48.788;9.214;2022-12-05T18:20:27;37.15;;;22.42;;
40815;SDS011;26535;48.788;9.214;2022-12-05T18:22:53;40.50;;;21.83;;
40815;SDS011;26535;48.788;9.214;2022-12-05T18:25:19;24.55;;;13.82;;
40815;SDS011;26535;48.788;9.214;2022-12-05T18:27:45;24.02;;;12.55;;
40815;SDS011;26535;48.788;9.214;2022-12-05T18:30:11;24.27;;;12.68;;
40815;SDS011;26535;48.788;9.214;2022-12-05T18:32:37;24.17;;;14.13;;
40815;SDS011;26535;48.788;9.214;2022-12-05T18:35:04;24.95;;;14.55;;
40815;SDS011;26535;48.788;9.214;2022-12-05T18:37:35;27.05;;;15.73;;
40815;SDS011;26535;48.788;9.214;2022-12-05T18:40:02;31.17;;;17.20;;
40815;SDS011;26535;48.788;9.214;2022-12-05T18:42:29;48.67;;;27.85;;
40815;SDS011;26535;48.788;9.214;2022-12-05T18:44:55;48.30;;;28.17;;
40815;SDS011;26535;48.788;9.214;2022-12-05T18:47:21;47.63;;;27.40;;
40815;SDS011;26535;48.788;9.214;2022-12-05T18:49:48;32.80;;;18.98;;
40815;SDS011;26535;48.788;9.214;2022-12-05T18:52:14;25.75;;;14.88;;
40815;SDS011;26535;48.788;9.214;2022-12-05T18:54:40;24.27;;;13.00;;
40815;SDS011;26535;48.788;9.214;2022-12-05T18:57:06;21.67;;;12.10;;
40815;SDS011;26535;48.788;9.214;2022-12-05T18:59:31;21.75;;;13.10;;
40815;SDS011;26535;48.788;9.214;2022-12-05T19:01:57;24.50;;;14.13;;
40815;SDS011;26535;48.788;9.214;2022-12-05T19:04:24;22.23;;;13.63;;
40815;SDS011;26535;48.788;9.214;2022-12-05T19:06:51;30.52;;;18.25;;
40815;SDS011;26535;48.788;9.214;2022-12-05T19:09:19;28.85;;;13.35;;
40815;SDS011;26535;48.788;9.214;2022-12-05T19:11:47;24.00;;;12.88;;
40815;SDS011;26535;48.788;9.214;2022-12-05T19:14:16;23.08;;;12.68;;
40815;SDS011;26535;48.788;9.214;2022-12-05T19:16:43;22.42;;;12.05;;
40815;SDS011;26535;48.788;9.214;2022-12-05T19:19:13;29.33;;;15.48;;
40815;SDS011;26535;48.788;9.214;2022-12-05T19:21:41;39.75;;;22.00;;
40815;SDS011;26535;48.788;9.214;2022-12-05T19:24:07;36.17;;;21.33;;
40815;SDS011;26535;48.788;9.214;2022-12-05T19:26:34;44.13;;;25.20;;
40815;SDS011;26535;48.788;9.214;2022-12-05T19:29:00;44.17;;;23.50;;
40815;SDS011;26535;48.788;9.214;2022-12-05T19:31:27;41.78;;;22.48;;
40815;SDS011;26535;48.788;9.214;2022-12-05T19:33:55;30.35;;;15.82;;
40815;SDS011;26535;48.788;9.214;2022-12-05T19:36:24;51.28;;;28.13;;
40815;SDS011;26535;48.788;9.214;2022-12-05T19:38:56;27.48;;;15.63;;
40815;SDS011;26535;48.788;9.214;2022-12-05T19:41:27;25.43;;;14.03;;
40815;SDS011;26535;48.788;9.214;2022-12-05T19:43:54;34.53;;;19.60;;
40815;SDS011;26535;48.788;9.214;2022-12-05T19:46:24;38.28;;;21.80;;
40815;SDS011;26535;48.788;9.214;2022-12-05T19:48:55;26.88;;;14.40;;
40815;SDS011;26535;48.788;9.214;2022-12-05T19:51:22;24.50;;;14.95;;
40815;SDS011;26535;48.788;9.214;2022-12-05T19:53:48;24.20;;;13.50;;
40815;SDS011;26535;48.788;9.214;2022-12-05T19:56:16;25.75;;;14.02;;
40815;SDS011;26535;48.788;9.214;2022-12-05T19:58:44;29.60;;;15.98;;
40815;SDS011;26535;48.788;9.214;2022-12-05T20:01:11;26.00;;;15.15;;
40815;SDS011;26535;48.788;9.214;2022-12-05T20:03:52;31.70;;;15.63;;
40815;SDS011;26535;48.788;9.214;2022-12-05T20:06:20;25.98;;;14.40;;
40815;SDS011;26535;48.788;9.214;2022-12-05T20:08:47;30.08;;;17.08;;
40815;SDS011;26535;48.788;9.214;2022-12-05T20:11:16;23.83;;;13.75;;
40815;SDS011;26535;48.788;9.214;2022-12-05T20:13:46;21.02;;;12.98;;
40815;SDS011;26535;48.788;9.214;2022-12-05T20:16:12;23.35;;;13.38;;
40815;SDS011;26535;48.788;9.214;2022-12-05T20:18:40;22.63;;;12.25;;
40815;SDS011;26535;48.788;9.214;2022-12-05T20:21:10;23.98;;;13.18;;
40815;SDS011;26535;48.788;9.214;2022-12-05T20:23:37;22.00;;;13.40;;
40815;SDS011;26535;48.788;9.214;2022-12-05T20:26:45;28.52;;;17.38;;
40815;SDS011;26535;48.788;9.214;2022-12-05T20:28:56;24.67;;;14.13;;
40815;SDS011;26535;48.788;9.214;2022-12-05T20:31:33;22.17;;;12.82;;
40815;SDS011;26535;48.788;9.214;2022-12-05T20:34:04;21.48;;;12.32;;
40815;SDS011;26535;48.788;9.214;2022-12-05T20:36:30;22.33;;;12.95;;
40815;SDS011;26535;48.788;9.214;2022-12-05T20:38:59;22.00;;;12.63;;
40815;SDS011;26535;48.788;9.214;2022-12-05T20:41:27;26.67;;;14.80;;
40815;SDS011;26535;48.788;9.214;2022-12-05T20:43:54;27.85;;;16.70;;
40815;SDS011;26535;48.788;9.214;2022-12-05T20:46:22;33.47;;;18.73;;
40815;SDS011;26535;48.788;9.214;2022-12-05T20:48:48;49.45;;;26.23;;
40815;SDS011;26535;48.788;9.214;2022-12-05T20:51:19;34.92;;;21.00;;
40815;SDS011;26535;48.788;9.214;2022-12-05T20:53:50;28.65;;;16.27;;
40815;SDS011;26535;48.788;9.214;2022-12-05T20:56:18;22.17;;;12.18;;
40815;SDS011;26535;48.788;9.214;2022-12-05T20:58:46;37.40;;;21.70;;
40815;SDS011;26535;48.788;9.214;2022-12-05T21:01:14;41.47;;;23.02;;
40815;SDS011;26535;48.788;9.214;2022-12-05T21:03:42;30.48;;;17.27;;
40815;SDS011;26535;48.788;9.214;2022-12-05T21:06:10;35.55;;;19.80;;
40815;SDS011;26535;48.788;9.214;2022-12-05T21:08:38;25.88;;;15.50;;
40815;SDS011;26535;48.788;9.214;2022-12-05T21:11:05;23.48;;;12.55;;
40815;SDS011;26535;48.788;9.214;2022-12-05T21:13:31;26.30;;;15.80;;
40815;SDS011;26535;48.788;9.214;2022-12-05T21:16:06;32.83;;;18.98;;
40815;SDS011;26535;48.788;9.214;2022-12-05T21:18:34;27.83;;;13.88;;
40815;SDS011;26535;48.788;9.214;2022-12-05T21:21:00;34.70;;;20.42;;
40815;SDS011;26535;48.788;9.214;2022-12-05T21:23:28;50.95;;;27.52;;
40815;SDS011;26535;48.788;9.214;2022-12-05T21:25:54;32.47;;;17.20;;
40815;SDS011;26535;48.788;9.214;2022-12-05T21:28:24;23.95;;;13.63;;
40815;SDS011;26535;48.788;9.214;2022-12-05T21:30:50;33.95;;;17.40;;
40815;SDS011;26535;48.788;9.214;2022-12-05T21:33:16;26.95;;;16.50;;
40815;SDS011;26535;48.788;9.214;2022-12-05T21:35:54;26.60;;;14.60;;
40815;SDS011;26535;48.788;9.214;2022-12-05T21:38:20;29.85;;;15.68;;
40815;SDS011;26535;48.788;9.214;2022-12-05T21:40:45;25.33;;;13.93;;
40815;SDS011;26535;48.788;9.214;2022-12-05T21:43:11;26.70;;;13.98;;
40815;SDS011;26535;48.788;9.214;2022-12-05T21:45:37;20.90;;;12.35;;
40815;SDS011;26535;48.788;9.214;2022-12-05T21:48:03;24.20;;;13.68;;
40815;SDS011;26535;48.788;9.214;2022-12-05T21:50:29;23.08;;;13.38;;
40815;SDS011;26535;48.788;9.214;2022-12-05T21:52:55;23.88;;;13.23;;
40815;SDS011;26535;48.788;9.214;2022-12-05T21:55:20;24.73;;;13.90;;
40815;SDS011;26535;48.788;9.214;2022-12-05T21:57:46;26.60;;;14.27;;
40815;SDS011;26535;48.788;9.214;2022-12-05T22:00:12;30.98;;;17.50;;
40815;SDS011;26535;48.788;9.214;2022-12-05T22:02:38;28.02;;;16.50;;
40815;SDS011;26535;48.788;9.214;2022-12-05T22:05:04;34.08;;;16.05;;
40815;SDS011;26535;48.788;9.214;2022-12-05T22:07:31;32.03;;;17.20;;
40815;SDS011;26535;48.788;9.214;2022-12-05T22:09:57;32.10;;;18.05;;
40815;SDS011;26535;48.788;9.214;2022-12-05T22:12:22;29.08;;;16.95;;
40815;SDS011;26535;48.788;9.214;2022-12-05T22:14:48;26.73;;;15.35;;
40815;SDS011;26535;48.788;9.214;2022-12-05T22:17:14;29.05;;;16.55;;
40815;SDS011;26535;48.788;9.214;2022-12-05T22:19:40;24.58;;;14.85;;
40815;SDS011;26535;48.788;9.214;2022-12-05T22:22:05;39.80;;;24.40;;
40815;SDS011;26535;48.788;9.214;2022-12-05T22:24:31;36.97;;;21.52;;
40815;SDS011;26535;48.788;9.214;2022-12-05T22:26:57;27.33;;;14.40;;
40815;SDS011;26535;48.788;9.214;2022-12-05T22:29:23;22.92;;;12.63;;
40815;SDS011;26535;48.788;9.214;2022-12-05T22:31:48;21.67;;;12.43;;
40815;SDS011;26535;48.788;9.214;2022-12-05T22:34:14;22.48;;;13.15;;
40815;SDS011;26535;48.788;9.214;2022-12-05T22:36:40;37.03;;;21.20;;
40815;SDS011;26535;48.788;9.214;2022-12-05T22:39:06;30.80;;;18.15;;
40815;SDS011;26535;48.788;9.214;2022-12-05T22:41:31;34.78;;;18.25;;
40815;SDS011;26535;48.788;9.214;2022-12-05T22:43:58;28.50;;;16.13;;
40815;SDS011;26535;48.788;9.214;2022-12-05T22:46:24;29.15;;;15.90;;
40815;SDS011;26535;48.788;9.214;2022-12-05T22:49:04;26.77;;;15.23;;